Time;durP1;ratioP1;P1;durP2;ratioP2;P2;SDS_P1;SDS_P2;PMS_P1;PMS_P2;Temp;Humidity;BMP_temperature;BMP_pressure;BME280_temperature;BME280_humidity;BME280_pressure;Samples;Min_cycle;Max_cycle;Signal;HPM_P1;HPM_P2
2023/02/08 00:00:57;;;;;;;27.70;15.13;;;-3.70;99.90;;;;;;5060007;28;20049;-66
2023/02/08 00:03:27;;;;;;;27.67;14.18;;;-3.70;99.90;;;;;;5059346;28;20477;-66
2023/02/08 00:05:55;;;;;;;29.85;14.15;;;-3.60;99.90;;;;;;5066760;28;20049;-66
2023/02/08 00:08:22;;;;;;;23.20;13.63;;;-3.70;99.90;;;;;;5071222;28;20469;-67
2023/02/08 00:10:50;;;;;;;25.45;13.80;;;-3.70;99.90;;;;;;5072891;28;20048;-66
2023/02/08 00:13:17;;;;;;;24.25;14.00;;;-3.70;99.90;;;;;;5073765;28;20052;-65
2023/02/08 00:15:45;;;;;;;25.88;14.52;;;-3.70;99.90;;;;;;5073395;28;20066;-66
2023/02/08 00:18:13;;;;;;;26.77;14.63;;;-3.70;99.90;;;;;;5055938;28;20070;-66
2023/02/08 00:20:41;;;;;;;25.95;15.00;;;-3.80;99.90;;;;;;5065103;28;20482;-65
2023/02/08 00:23:09;;;;;;;24.70;14.23;;;-3.80;99.90;;;;;;5060072;28;20040;-66
2023/02/08 00:25:37;;;;;;;26.85;14.48;;;-3.80;99.90;;;;;;5073276;28;20119;-65
2023/02/08 00:28:05;;;;;;;28.10;15.52;;;-3.80;99.90;;;;;;5073552;28;20234;-66
2023/02/08 00:30:35;;;;;;;33.47;16.02;;;-3.80;99.90;;;;;;5065834;28;20106;-66
2023/02/08 00:33:03;;;;;;;29.63;16.02;;;-3.80;99.90;;;;;;5058811;28;20048;-66
2023/02/08 00:35:31;;;;;;;32.28;15.95;;;-3.70;99.90;;;;;;5073525;28;20124;-66
2023/02/08 00:37:58;;;;;;;26.00;14.98;;;-3.80;99.90;;;;;;5066678;28;20068;-66
2023/02/08 00:40:26;;;;;;;28.45;16.15;;;-3.90;99.90;;;;;;5053235;28;20557;-66
2023/02/08 00:42:54;;;;;;;29.42;15.55;;;-3.90;99.90;;;;;;5052542;28;20061;-65
2023/02/08 00:45:22;;;;;;;26.10;15.25;;;-4.00;99.90;;;;;;5058182;28;20041;-65
2023/02/08 00:47:49;;;;;;;30.60;16.20;;;-4.10;99.90;;;;;;5054397;28;20383;-66
2023/02/08 00:50:17;;;;;;;24.13;14.88;;;-4.10;99.90;;;;;;5057904;28;20060;-66
2023/02/08 00:52:44;;;;;;;23.90;15.07;;;-4.20;99.90;;;;;;5073331;28;20040;-66
2023/02/08 00:55:11;;;;;;;29.63;16.10;;;-4.20;99.90;;;;;;5071442;28;20048;-65
2023/02/08 00:57:38;;;;;;;26.38;15.18;;;-4.20;99.90;;;;;;5088683;28;20096;-66
2023/02/08 01:00:07;;;;;;;27.42;15.70;;;-4.30;99.90;;;;;;5088573;28;20518;-66
2023/02/08 01:02:37;;;;;;;30.40;15.98;;;-4.30;99.90;;;;;;5055146;28;20123;-66
2023/02/08 01:05:05;;;;;;;27.27;15.07;;;-4.30;99.90;;;;;;5088413;28;20047;-66
2023/02/08 01:07:36;;;;;;;28.23;14.73;;;-4.30;99.90;;;;;;5088841;28;20067;-66
2023/02/08 01:10:04;;;;;;;30.63;15.32;;;-4.30;99.90;;;;;;5071423;28;20040;-67
2023/02/08 01:12:32;;;;;;;27.88;15.38;;;-4.30;99.90;;;;;;5088585;28;20047;-65
2023/02/08 01:14:59;;;;;;;34.25;16.17;;;-4.30;99.90;;;;;;5071472;28;20037;-65
2023/02/08 01:17:26;;;;;;;28.40;16.73;;;-4.30;99.90;;;;;;5088174;28;20044;-64
2023/02/08 01:19:54;;;;;;;29.88;16.40;;;-4.40;99.90;;;;;;5072477;28;20041;-65
2023/02/08 01:22:21;;;;;;;32.63;17.63;;;-4.30;99.90;;;;;;5073045;28;20368;-66
2023/02/08 01:24:48;;;;;;;27.33;15.73;;;-4.30;99.90;;;;;;5070966;28;20135;-65
2023/02/08 01:27:16;;;;;;;30.13;15.63;;;-4.30;99.90;;;;;;5069038;28;20582;-65
2023/02/08 01:29:43;;;;;;;28.85;15.48;;;-4.40;99.90;;;;;;5057855;28;20047;-65
2023/02/08 01:32:10;;;;;;;30.15;16.20;;;-4.40;99.90;;;;;;5075721;28;20357;-65
2023/02/08 01:34:37;;;;;;;28.52;14.90;;;-4.50;99.90;;;;;;5054049;28;20462;-66
2023/02/08 01:37:05;;;;;;;35.72;16.77;;;-4.50;99.90;;;;;;5069058;28;20128;-68
2023/02/08 01:39:32;;;;;;;29.95;15.82;;;-4.50;99.90;;;;;;5051258;28;20143;-65
2023/02/08 01:41:59;;;;;;;28.88;16.25;;;-4.50;99.90;;;;;;5052686;28;20095;-64
2023/02/08 01:45:04;;;;;;;29.33;17.10;;;-4.50;99.90;;;;;;5071212;28;20074;-66
2023/02/08 01:47:32;;;;;;;29.23;17.27;;;-4.50;99.90;;;;;;5071942;28;20032;-66
2023/02/08 01:49:59;;;;;;;33.63;16.70;;;-4.50;99.90;;;;;;5065323;28;20044;-66
2023/02/08 01:52:27;;;;;;;32.03;17.13;;;-4.60;99.90;;;;;;5057925;28;20464;-66
2023/02/08 01:55:14;;;;;;;31.33;16.05;;;-4.60;99.90;;;;;;5087632;28;20115;-65
2023/02/08 01:57:43;;;;;;;32.78;17.83;;;-4.60;99.90;;;;;;5071480;28;20040;-66
2023/02/08 02:00:17;;;;;;;35.30;17.05;;;-4.70;99.90;;;;;;5054024;28;20033;-65
2023/02/08 02:02:46;;;;;;;27.25;16.77;;;-4.70;99.90;;;;;;5071858;28;20043;-66
2023/02/08 02:05:16;;;;;;;33.30;16.65;;;-4.70;99.90;;;;;;5068053;28;20045;-65
2023/02/08 02:07:43;;;;;;;30.60;16.90;;;-4.80;99.90;;;;;;5079950;28;20518;-66
2023/02/08 02:10:13;;;;;;;29.35;16.25;;;-4.80;99.90;;;;;;5055436;28;20376;-66
2023/02/08 02:12:41;;;;;;;28.13;16.50;;;-4.80;99.90;;;;;;5051497;28;20120;-65
2023/02/08 02:15:09;;;;;;;30.25;16.23;;;-4.80;99.90;;;;;;5049033;28;20392;-66
2023/02/08 02:17:38;;;;;;;30.42;15.93;;;-4.90;99.90;;;;;;5051986;28;20041;-66
2023/02/08 02:20:34;;;;;;;32.10;17.48;;;-4.90;99.90;;;;;;5049424;28;20041;-65
2023/02/08 02:23:26;;;;;;;30.33;16.60;;;-4.90;99.90;;;;;;5029834;28;20049;-66
2023/02/08 02:26:12;;;;;;;34.65;16.25;;;-4.90;99.90;;;;;;5054678;28;20396;-66
2023/02/08 02:28:51;;;;;;;26.77;15.13;;;-5.00;99.90;;;;;;5047098;28;20416;-66
2023/02/08 02:31:43;;;;;;;29.25;15.35;;;-5.00;99.90;;;;;;5050198;28;20423;-65
2023/02/08 02:34:19;;;;;;;29.83;17.55;;;-5.00;99.90;;;;;;5045730;28;20053;-66
2023/02/08 02:36:55;;;;;;;29.85;16.67;;;-5.00;99.90;;;;;;5048929;28;20128;-66
2023/02/08 02:39:52;;;;;;;30.85;16.40;;;-5.00;99.90;;;;;;5049006;28;20176;-66
2023/02/08 02:45:34;;;;;;;35.83;17.27;;;-5.00;99.90;;;;;;5022232;28;20139;-64
2023/02/08 02:48:12;;;;;;;29.50;16.38;;;-5.00;99.90;;;;;;5030491;28;20129;-66
2023/02/08 02:50:50;;;;;;;31.00;16.45;;;-5.00;99.90;;;;;;5047385;28;20555;-66
2023/02/08 02:53:38;;;;;;;28.98;15.77;;;-5.00;99.90;;;;;;5031776;28;20468;-66
2023/02/08 02:56:12;;;;;;;31.02;16.50;;;-5.00;99.90;;;;;;5045869;28;20051;-65
2023/02/08 02:58:41;;;;;;;29.95;16.33;;;-5.00;99.90;;;;;;5030486;28;20053;-65
2023/02/08 03:01:08;;;;;;;28.17;16.02;;;-5.00;99.90;;;;;;5030339;28;20042;-66
2023/02/08 03:03:36;;;;;;;31.67;16.70;;;-5.00;99.90;;;;;;5029414;28;20048;-67
2023/02/08 03:06:19;;;;;;;26.40;15.25;;;-5.10;99.90;;;;;;5047194;28;20056;-66
2023/02/08 03:09:23;;;;;;;30.38;15.45;;;-5.10;99.90;;;;;;5045087;28;20063;-65
2023/02/08 03:12:01;;;;;;;27.20;15.38;;;-5.10;99.90;;;;;;5035543;28;20042;-65
2023/02/08 03:14:42;;;;;;;29.40;15.80;;;-5.10;99.90;;;;;;5034301;28;20049;-66
2023/02/08 03:17:20;;;;;;;34.17;16.40;;;-5.10;99.90;;;;;;5053011;28;20075;-66
2023/02/08 03:20:12;;;;;;;33.92;16.38;;;-5.10;99.90;;;;;;5040850;28;20377;-66
2023/02/08 03:22:48;;;;;;;31.70;16.83;;;-5.10;99.90;;;;;;5033096;28;20458;-65
2023/02/08 03:25:30;;;;;;;32.40;16.00;;;-5.10;99.90;;;;;;5034247;28;20045;-65
2023/02/08 03:28:22;;;;;;;33.83;16.35;;;-5.10;99.90;;;;;;5035106;28;20053;-66
2023/02/08 03:31:08;;;;;;;26.85;15.52;;;-5.00;99.90;;;;;;5034495;28;20073;-65
2023/02/08 03:33:56;;;;;;;31.95;16.63;;;-5.00;99.90;;;;;;5053408;28;20049;-65
2023/02/08 03:36:31;;;;;;;28.35;16.35;;;-5.00;99.90;;;;;;5039739;28;20642;-64
2023/02/08 03:39:03;;;;;;;34.17;16.65;;;-5.10;99.90;;;;;;5034399;28;20516;-66
2023/02/08 03:41:36;;;;;;;29.83;14.55;;;-5.10;99.90;;;;;;5044196;28;20115;-66
2023/02/08 03:44:36;;;;;;;31.33;15.55;;;-5.10;99.90;;;;;;5054522;28;20049;-65
2023/02/08 03:47:12;;;;;;;31.40;15.50;;;-5.10;99.90;;;;;;5030626;28;20519;-66
2023/02/08 03:49:42;;;;;;;31.48;15.90;;;-5.10;99.90;;;;;;5054377;28;20518;-65
2023/02/08 03:52:10;;;;;;;32.63;16.75;;;-5.10;99.90;;;;;;5037047;28;20052;-65
2023/02/08 03:55:04;;;;;;;32.45;16.20;;;-5.10;99.90;;;;;;5032691;28;20038;-65
2023/02/08 03:57:37;;;;;;;31.65;16.27;;;-5.00;99.90;;;;;;5034246;28;20117;-67
2023/02/08 04:00:15;;;;;;;31.95;17.13;;;-5.10;99.90;;;;;;5033027;28;20042;-65
2023/02/08 04:03:16;;;;;;;28.15;15.88;;;-5.10;99.90;;;;;;5034282;28;20046;-65
2023/02/08 04:05:43;;;;;;;32.55;17.20;;;-5.10;99.90;;;;;;5045295;28;20414;-65
2023/02/08 04:08:10;;;;;;;33.40;16.63;;;-5.00;99.90;;;;;;5054249;28;20048;-65
2023/02/08 04:10:38;;;;;;;31.73;16.98;;;-5.00;99.90;;;;;;5036550;28;20041;-66
2023/02/08 04:13:06;;;;;;;36.05;17.73;;;-5.00;99.90;;;;;;5033029;28;20121;-65
2023/02/08 04:15:33;;;;;;;32.38;17.00;;;-5.00;99.90;;;;;;5033111;28;20051;-67
2023/02/08 04:18:00;;;;;;;30.45;16.25;;;-5.00;99.90;;;;;;5033029;28;20080;-65
2023/02/08 04:20:27;;;;;;;29.02;16.20;;;-4.90;99.90;;;;;;5036106;28;20068;-62
2023/02/08 04:22:55;;;;;;;36.45;16.63;;;-5.00;99.90;;;;;;5052376;28;20037;-61
2023/02/08 04:25:22;;;;;;;32.47;15.45;;;-5.00;99.90;;;;;;5050406;28;20080;-62
2023/02/08 04:27:49;;;;;;;28.50;15.80;;;-5.00;99.90;;;;;;5033347;28;20057;-64
2023/02/08 04:30:17;;;;;;;32.13;15.98;;;-5.00;99.90;;;;;;5047799;28;20038;-62
2023/02/08 04:32:44;;;;;;;33.78;16.90;;;-5.00;99.90;;;;;;5052803;28;20145;-62
2023/02/08 04:35:11;;;;;;;33.10;17.10;;;-5.00;99.90;;;;;;5052056;28;20077;-63
2023/02/08 04:37:38;;;;;;;29.55;15.82;;;-5.00;99.90;;;;;;5034294;28;20045;-62
2023/02/08 04:40:06;;;;;;;36.80;17.80;;;-5.10;99.90;;;;;;5032325;28;20185;-63
2023/02/08 04:42:34;;;;;;;33.75;16.52;;;-5.10;99.90;;;;;;5047205;28;20156;-62
2023/02/08 04:45:01;;;;;;;33.42;16.98;;;-5.10;99.90;;;;;;5047017;28;20623;-63
2023/02/08 04:47:28;;;;;;;40.03;17.70;;;-5.10;99.90;;;;;;5032782;28;20042;-62
2023/02/08 04:49:56;;;;;;;34.70;17.45;;;-5.20;99.90;;;;;;5038053;28;20052;-65
2023/02/08 04:52:23;;;;;;;34.53;17.08;;;-5.20;99.90;;;;;;5053931;28;20435;-61
2023/02/08 04:54:50;;;;;;;33.00;17.33;;;-5.30;99.90;;;;;;5050813;28;20052;-64
2023/02/08 04:57:18;;;;;;;35.72;17.73;;;-5.30;99.90;;;;;;5052985;28;20116;-62
2023/02/08 04:59:45;;;;;;;31.77;16.92;;;-5.30;99.90;;;;;;5040740;28;20041;-61
2023/02/08 05:02:12;;;;;;;34.13;18.40;;;-5.30;99.90;;;;;;5032564;28;20689;-62
2023/02/08 05:04:39;;;;;;;36.95;18.20;;;-5.40;99.90;;;;;;5031426;28;20348;-61
2023/02/08 05:07:07;;;;;;;32.00;17.80;;;-5.40;99.90;;;;;;5031490;28;20045;-62
2023/02/08 05:09:34;;;;;;;37.28;18.63;;;-5.40;99.90;;;;;;5031863;28;20049;-61
2023/02/08 05:12:01;;;;;;;39.13;19.10;;;-5.40;99.90;;;;;;5052922;28;20044;-62
2023/02/08 05:14:28;;;;;;;37.97;18.15;;;-5.40;99.90;;;;;;5051169;28;20111;-67
2023/02/08 05:16:56;;;;;;;41.10;19.70;;;-5.40;99.90;;;;;;5031493;28;20140;-61
2023/02/08 05:19:23;;;;;;;40.83;18.92;;;-5.40;99.90;;;;;;5031865;28;20033;-61
2023/02/08 05:21:50;;;;;;;42.90;19.35;;;-5.40;99.90;;;;;;5032880;28;20492;-61
2023/02/08 05:24:18;;;;;;;35.83;18.63;;;-5.40;99.90;;;;;;5059678;28;20044;-62
2023/02/08 05:26:45;;;;;;;34.10;17.10;;;-5.50;99.90;;;;;;5041463;28;20053;-62
2023/02/08 05:29:13;;;;;;;36.78;17.60;;;-5.50;99.90;;;;;;5038094;28;20063;-63
2023/02/08 05:31:40;;;;;;;38.38;19.23;;;-5.50;99.90;;;;;;5051721;28;20499;-63
2023/02/08 05:34:08;;;;;;;35.80;19.30;;;-5.60;99.90;;;;;;5033158;28;20045;-62
2023/02/08 05:36:35;;;;;;;39.72;19.25;;;-5.60;99.90;;;;;;5046512;28;20045;-63
2023/02/08 05:39:03;;;;;;;40.13;18.70;;;-5.60;99.90;;;;;;5047976;28;20045;-62
2023/02/08 05:41:31;;;;;;;36.22;18.23;;;-5.60;99.90;;;;;;5050075;28;20424;-61
2023/02/08 05:43:58;;;;;;;40.47;18.35;;;-5.60;99.90;;;;;;5050862;28;20578;-63
2023/02/08 05:46:25;;;;;;;32.75;17.27;;;-5.60;99.90;;;;;;5050051;28;20045;-64
2023/02/08 05:48:53;;;;;;;36.72;18.20;;;-5.60;99.90;;;;;;5050681;28;20561;-63
2023/02/08 05:51:20;;;;;;;37.35;17.90;;;-5.60;99.90;;;;;;5050573;28;20045;-62
2023/02/08 05:53:47;;;;;;;37.03;18.20;;;-5.50;99.90;;;;;;5049294;28;20059;-63
2023/02/08 05:56:14;;;;;;;41.78;19.40;;;-5.50;99.90;;;;;;5051535;28;20033;-63
2023/02/08 05:58:42;;;;;;;38.85;18.63;;;-5.50;99.90;;;;;;5038675;28;20037;-64
2023/02/08 06:01:11;;;;;;;38.50;18.83;;;-5.50;99.90;;;;;;5031180;28;20037;-61
2023/02/08 06:03:39;;;;;;;40.33;20.63;;;-5.50;99.90;;;;;;5041303;28;20032;-62
2023/02/08 06:06:09;;;;;;;33.95;18.50;;;-5.50;99.90;;;;;;5054093;28;20064;-61
2023/02/08 06:08:37;;;;;;;34.03;17.83;;;-5.50;99.90;;;;;;5049084;28;20392;-63
2023/02/08 06:11:05;;;;;;;40.55;19.33;;;-5.50;99.90;;;;;;5049521;28;20765;-63
2023/02/08 06:13:33;;;;;;;50.17;22.52;;;-5.50;99.90;;;;;;5052242;28;20049;-61
2023/02/08 06:16:00;;;;;;;39.63;20.92;;;-5.50;99.90;;;;;;5037005;28;20047;-63
2023/02/08 06:18:28;;;;;;;41.08;19.88;;;-5.50;99.90;;;;;;5066585;28;20048;-65
2023/02/08 06:20:56;;;;;;;36.40;20.00;;;-5.60;99.90;;;;;;5063639;28;20123;-63
2023/02/08 06:23:23;;;;;;;45.92;20.67;;;-5.60;99.90;;;;;;5047986;28;20136;-61
2023/02/08 06:25:51;;;;;;;38.75;19.38;;;-5.60;99.90;;;;;;5059321;28;20075;-61
2023/02/08 06:28:18;;;;;;;42.80;19.80;;;-5.60;99.90;;;;;;5052862;28;20037;-62
2023/02/08 06:30:49;;;;;;;36.08;19.52;;;-5.60;99.90;;;;;;5064080;28;20041;-62
2023/02/08 06:33:17;;;;;;;39.60;19.50;;;-5.60;99.90;;;;;;5065055;28;20051;-62
2023/02/08 06:35:45;;;;;;;40.33;21.27;;;-5.50;99.90;;;;;;5056323;28;20068;-61
2023/02/08 06:38:13;;;;;;;50.88;21.85;;;-5.50;99.90;;;;;;5049711;28;20033;-62
2023/02/08 06:40:41;;;;;;;50.42;23.23;;;-5.40;99.90;;;;;;5063149;28;20033;-61
2023/02/08 06:43:08;;;;;;;46.05;22.88;;;-5.30;99.90;;;;;;5050017;28;20103;-65
2023/02/08 06:45:35;;;;;;;52.75;23.73;;;-5.20;99.90;;;;;;5061285;28;20044;-61
2023/02/08 06:48:03;;;;;;;44.53;21.17;;;-5.10;99.90;;;;;;5043108;28;20052;-63
2023/02/08 06:50:31;;;;;;;45.28;21.50;;;-4.90;99.90;;;;;;5064140;28;20036;-63
2023/02/08 06:52:58;;;;;;;42.55;21.92;;;-5.00;99.90;;;;;;5070322;28;20045;-62
2023/02/08 06:55:26;;;;;;;42.95;22.00;;;-4.90;99.90;;;;;;5037051;28;20037;-63
2023/02/08 06:57:54;;;;;;;44.17;21.73;;;-5.00;99.90;;;;;;5064686;28;20386;-63
2023/02/08 07:00:21;;;;;;;48.90;23.23;;;-4.90;99.90;;;;;;5071353;28;20089;-62
2023/02/08 07:02:50;;;;;;;52.47;23.02;;;-4.90;99.90;;;;;;5063638;28;20451;-61
2023/02/08 07:05:18;;;;;;;49.40;21.33;;;-4.90;99.90;;;;;;5050894;28;20090;-64
2023/02/08 07:07:47;;;;;;;43.38;21.33;;;-4.90;99.90;;;;;;5065771;28;20123;-62
2023/02/08 07:10:15;;;;;;;43.00;21.50;;;-4.80;99.90;;;;;;5060248;28;20041;-63
2023/02/08 07:12:42;;;;;;;45.40;22.02;;;-4.70;99.90;;;;;;5064304;28;20135;-61
2023/02/08 07:15:12;;;;;;;47.53;21.35;;;-4.70;99.90;;;;;;5051170;28;20051;-62
2023/02/08 07:17:39;;;;;;;48.60;21.70;;;-4.70;99.90;;;;;;5044692;28;20404;-62
2023/02/08 07:20:07;;;;;;;46.63;22.30;;;-4.60;99.90;;;;;;5048706;28;20056;-63
2023/02/08 07:22:35;;;;;;;49.75;23.25;;;-4.60;99.90;;;;;;5047519;28;20040;-64
2023/02/08 07:25:03;;;;;;;44.90;22.58;;;-4.50;99.90;;;;;;5041401;28;20109;-62
2023/02/08 07:27:30;;;;;;;43.95;20.15;;;-4.50;99.90;;;;;;5046059;28;20071;-61
2023/02/08 07:29:57;;;;;;;43.80;21.33;;;-4.50;99.90;;;;;;5063912;28;20059;-64
2023/02/08 07:32:25;;;;;;;44.55;22.17;;;-4.40;99.90;;;;;;5070446;28;20060;-61
2023/02/08 07:34:53;;;;;;;45.97;22.73;;;-4.40;99.90;;;;;;5062757;28;20052;-62
2023/02/08 07:37:20;;;;;;;49.05;22.80;;;-4.20;99.90;;;;;;5043107;28;20046;-65
2023/02/08 07:39:48;;;;;;;43.22;21.40;;;-4.20;99.90;;;;;;5070460;28;20049;-62
2023/02/08 07:42:15;;;;;;;42.95;21.55;;;-4.10;99.90;;;;;;5058402;28;20063;-62
2023/02/08 07:44:53;;;;;;;42.55;22.55;;;-4.00;99.90;;;;;;5071665;28;20037;-64
2023/02/08 07:47:20;;;;;;;48.35;22.80;;;-3.90;99.90;;;;;;5042703;28;20117;-62
2023/02/08 07:49:47;;;;;;;47.17;23.70;;;-3.80;99.90;;;;;;5059063;28;20049;-63
2023/02/08 07:52:15;;;;;;;48.17;23.50;;;-3.70;99.90;;;;;;5045965;28;20125;-62
2023/02/08 07:54:42;;;;;;;42.00;22.58;;;-3.60;99.90;;;;;;5060380;28;20037;-64
2023/02/08 07:57:09;;;;;;;41.95;23.55;;;-3.50;99.90;;;;;;5058558;28;20417;-63
2023/02/08 07:59:36;;;;;;;49.22;23.08;;;-3.40;99.90;;;;;;5078580;28;20049;-62
2023/02/08 08:02:04;;;;;;;46.05;23.23;;;-3.40;99.90;;;;;;5053021;28;20140;-63
2023/02/08 08:04:31;;;;;;;44.30;23.02;;;-3.30;99.90;;;;;;5052351;28;20076;-62
2023/02/08 08:06:58;;;;;;;41.75;22.45;;;-3.20;99.90;;;;;;5045009;28;20049;-61
2023/02/08 08:09:26;;;;;;;46.95;24.42;;;-3.20;99.90;;;;;;5067442;28;20477;-62
2023/02/08 08:11:53;;;;;;;47.63;22.80;;;-3.10;99.90;;;;;;5083643;28;20509;-61
2023/02/08 08:14:20;;;;;;;46.67;22.95;;;-3.00;99.90;;;;;;5074355;28;20055;-61
2023/02/08 08:16:47;;;;;;;44.80;21.70;;;-3.00;99.90;;;;;;5056922;28;20132;-66
2023/02/08 08:19:15;;;;;;;45.40;22.67;;;-3.00;99.90;;;;;;5053233;28;20318;-65
2023/02/08 08:21:42;;;;;;;49.65;23.45;;;-2.90;99.90;;;;;;5050843;28;20045;-65
2023/02/08 08:24:09;;;;;;;44.47;22.45;;;-2.80;99.90;;;;;;5043374;28;20037;-65
2023/02/08 08:26:37;;;;;;;45.40;23.20;;;-2.80;99.90;;;;;;5037145;28;20056;-65
2023/02/08 08:29:05;;;;;;;45.47;22.25;;;-2.70;99.90;;;;;;5051854;28;20119;-65
2023/02/08 08:31:32;;;;;;;43.40;22.00;;;-2.60;99.90;;;;;;5043971;28;20430;-65
2023/02/08 08:33:59;;;;;;;42.17;22.33;;;-2.60;99.90;;;;;;5047881;28;20199;-66
2023/02/08 08:36:27;;;;;;;45.10;23.70;;;-2.50;99.90;;;;;;5051402;28;20132;-66
2023/02/08 08:38:54;;;;;;;53.25;26.85;;;-2.50;99.90;;;;;;5051813;28;20041;-65
2023/02/08 08:41:22;;;;;;;46.58;23.27;;;-2.40;99.90;;;;;;5052788;28;20170;-65
2023/02/08 08:43:49;;;;;;;45.70;24.30;;;-2.30;99.90;;;;;;5050561;28;20491;-66
2023/02/08 08:46:16;;;;;;;47.58;22.65;;;-2.30;99.90;;;;;;5048917;28;20068;-64
2023/02/08 08:48:45;;;;;;;42.78;22.60;;;-2.20;99.90;;;;;;5035878;28;20048;-66
2023/02/08 08:51:13;;;;;;;43.97;23.58;;;-2.20;99.90;;;;;;5040004;28;20107;-65
2023/02/08 08:53:40;;;;;;;53.30;23.95;;;-2.10;99.90;;;;;;5046667;28;20052;-65
2023/02/08 08:56:07;;;;;;;49.58;25.63;;;-2.10;99.90;;;;;;5051824;28;20041;-65
2023/02/08 08:58:35;;;;;;;41.53;21.75;;;-2.00;99.90;;;;;;5044083;28;20106;-64
2023/02/08 09:01:02;;;;;;;42.92;21.80;;;-1.90;99.90;;;;;;5035228;28;20483;-65
2023/02/08 09:03:29;;;;;;;42.05;22.02;;;-1.90;99.90;;;;;;5042014;28;20144;-65
2023/02/08 09:05:57;;;;;;;43.90;22.55;;;-1.80;99.90;;;;;;5036523;28;20137;-66
2023/02/08 09:08:24;;;;;;;41.75;21.55;;;-1.70;99.90;;;;;;5031928;28;20047;-66
2023/02/08 09:10:51;;;;;;;42.88;22.63;;;-1.60;99.90;;;;;;5040941;28;20411;-65
2023/02/08 09:13:20;;;;;;;41.60;22.85;;;-1.50;99.90;;;;;;5047076;28;20037;-65
2023/02/08 09:15:48;;;;;;;41.33;21.48;;;-1.30;99.90;;;;;;5031706;28;20364;-66
2023/02/08 09:18:15;;;;;;;43.55;21.52;;;-1.30;99.90;;;;;;5042961;28;20034;-66
2023/02/08 09:20:43;;;;;;;43.40;22.95;;;-1.20;99.90;;;;;;5048623;28;20412;-66
2023/02/08 09:23:13;;;;;;;45.80;21.92;;;-1.10;99.90;;;;;;5044032;28;20037;-65
2023/02/08 09:25:40;;;;;;;39.33;21.42;;;-1.00;99.90;;;;;;5030584;28;20396;-67
2023/02/08 09:28:08;;;;;;;43.28;22.90;;;-0.90;99.90;;;;;;5032420;28;20045;-66
2023/02/08 09:30:35;;;;;;;42.47;21.65;;;-0.80;99.90;;;;;;5049341;28;20037;-65
2023/02/08 09:33:02;;;;;;;38.60;21.27;;;-0.70;99.90;;;;;;5047571;28;20045;-65
2023/02/08 09:35:29;;;;;;;39.85;21.00;;;-0.60;99.90;;;;;;5044526;28;20060;-66
2023/02/08 09:37:57;;;;;;;41.30;21.73;;;-0.50;99.90;;;;;;5036321;28;20492;-65
2023/02/08 09:40:28;;;;;;;45.92;21.35;;;-0.40;99.90;;;;;;5045360;28;20056;-65
2023/02/08 09:43:20;;;;;;;40.83;21.83;;;-0.40;99.90;;;;;;5041281;28;20041;-65
2023/02/08 09:45:55;;;;;;;47.20;23.95;;;-0.20;99.90;;;;;;5045713;28;20535;-67
2023/02/08 09:48:37;;;;;;;43.55;22.10;;;-0.10;99.90;;;;;;5048185;28;20075;-67
2023/02/08 09:51:10;;;;;;;45.35;21.65;;;0.10;99.90;;;;;;5044334;28;20048;-67
2023/02/08 09:53:46;;;;;;;39.75;20.58;;;0.20;99.90;;;;;;5051382;28;20077;-67
2023/02/08 09:56:18;;;;;;;42.13;21.25;;;0.30;99.90;;;;;;5041317;28;20057;-67
2023/02/08 09:58:51;;;;;;;41.78;20.77;;;0.30;99.90;;;;;;5035227;28;20041;-66
2023/02/08 10:01:28;;;;;;;39.80;20.27;;;0.50;99.90;;;;;;5041955;28;20119;-66
2023/02/08 10:04:01;;;;;;;43.03;21.70;;;0.60;99.90;;;;;;5050348;28;20063;-66
2023/02/08 10:06:30;;;;;;;35.72;20.10;;;0.70;99.90;;;;;;5039169;28;20128;-68
2023/02/08 10:09:01;;;;;;;33.28;19.60;;;0.80;99.90;;;;;;5051451;28;20053;-66
2023/02/08 10:11:43;;;;;;;35.40;18.73;;;1.00;99.90;;;;;;5050392;28;20052;-66
2023/02/08 10:14:53;;;;;;;34.47;18.75;;;1.10;99.90;;;;;;5047496;28;20129;-67
2023/02/08 10:17:33;;;;;;;36.40;18.92;;;1.10;99.90;;;;;;5007537;28;20108;-66
2023/02/08 10:20:09;;;;;;;33.30;18.23;;;1.30;99.90;;;;;;4990535;28;20050;-66
2023/02/08 10:22:54;;;;;;;37.10;18.65;;;1.40;99.90;;;;;;5007181;28;20049;-66
2023/02/08 10:25:53;;;;;;;36.63;19.08;;;1.60;99.90;;;;;;5008278;28;20505;-67
2023/02/08 10:28:34;;;;;;;36.10;19.23;;;1.80;99.90;;;;;;5007903;28;20058;-67
2023/02/08 10:31:20;;;;;;;30.08;18.10;;;2.00;99.90;;;;;;5005855;28;20038;-66
2023/02/08 10:34:28;;;;;;;34.92;17.58;;;2.10;99.90;;;;;;5016924;28;20053;-66
2023/02/08 10:36:56;;;;;;;30.50;16.80;;;2.30;99.90;;;;;;4968589;28;20050;-68
2023/02/08 10:39:31;;;;;;;34.20;18.35;;;2.40;99.90;;;;;;4968619;28;20091;-68
2023/02/08 10:42:03;;;;;;;32.03;17.02;;;2.50;99.90;;;;;;4950138;28;20557;-67
2023/02/08 10:44:46;;;;;;;30.90;17.30;;;2.50;99.90;;;;;;4954012;28;20094;-67
2023/02/08 10:47:18;;;;;;;34.58;18.60;;;2.70;99.90;;;;;;4969316;28;20506;-67
2023/02/08 10:50:03;;;;;;;33.22;17.35;;;2.90;99.90;;;;;;4962986;28;20065;-67
2023/02/08 10:52:31;;;;;;;29.73;16.75;;;3.10;99.90;;;;;;5028424;28;20678;-66
2023/02/08 10:54:58;;;;;;;32.10;16.35;;;3.30;99.90;;;;;;5011409;28;20523;-67
2023/02/08 10:57:33;;;;;;;34.00;16.30;;;3.50;99.90;;;;;;5028532;28;20045;-67
2023/02/08 11:00:10;;;;;;;28.83;16.83;;;3.70;99.90;;;;;;5018663;28;20046;-65
2023/02/08 11:02:41;;;;;;;29.90;16.77;;;3.90;99.90;;;;;;4995170;28;20412;-66
2023/02/08 11:05:22;;;;;;;26.55;15.55;;;4.10;99.90;;;;;;5026933;28;20049;-68
2023/02/08 11:08:05;;;;;;;26.35;15.43;;;4.40;99.90;;;;;;5009360;28;20445;-68
2023/02/08 11:10:32;;;;;;;32.88;16.38;;;4.70;99.90;;;;;;5015975;28;20151;-66
2023/02/08 11:13:18;;;;;;;29.80;17.13;;;5.00;99.90;;;;;;5039925;28;20044;-66
2023/02/08 11:15:53;;;;;;;28.50;17.55;;;5.20;99.90;;;;;;5048466;28;20037;-66
2023/02/08 11:18:38;;;;;;;27.73;16.92;;;5.50;99.90;;;;;;5038110;28;20519;-67
2023/02/08 11:21:10;;;;;;;26.42;16.73;;;5.70;99.90;;;;;;5033441;28;20041;-67
2023/02/08 11:23:41;;;;;;;;;;;5.90;99.90;;;;;;5045265;28;20559;-66
2023/02/08 11:26:31;;;;;;;26.83;15.77;;;6.20;99.90;;;;;;5045011;28;19920;-66
2023/02/08 11:29:13;;;;;;;24.95;16.33;;;6.20;99.90;;;;;;5048910;28;20045;-66
2023/02/08 11:31:58;;;;;;;;;;;6.40;99.90;;;;;;5049732;28;20045;-66
2023/02/08 11:34:38;;;;;;;27.70;17.00;;;6.60;99.90;;;;;;5051989;28;19927;-68
2023/02/08 11:37:24;;;;;;;32.17;16.80;;;6.90;99.90;;;;;;5052252;28;20076;-66
2023/02/08 11:39:57;;;;;;;27.40;16.05;;;7.00;99.90;;;;;;5037963;28;20042;-66
2023/02/08 11:42:28;;;;;;;24.85;15.70;;;7.20;99.90;;;;;;5032354;28;20057;-66
2023/02/08 11:44:58;;;;;;;23.85;15.95;;;7.40;99.90;;;;;;5042683;28;20048;-66
2023/02/08 11:47:30;;;;;;;25.70;15.45;;;7.50;99.90;;;;;;5053127;28;20069;-67
2023/02/08 11:50:01;;;;;;;24.77;15.88;;;7.50;99.90;;;;;;5053440;28;20507;-67
2023/02/08 11:52:38;;;;;;;22.80;14.25;;;7.80;99.90;;;;;;5053848;28;20067;-67
2023/02/08 11:55:24;;;;;;;21.33;13.60;;;7.90;99.90;;;;;;5054835;28;20384;-66
2023/02/08 11:57:54;;;;;;;23.77;14.90;;;8.20;99.90;;;;;;5053189;28;20040;-67
2023/02/08 12:00:25;;;;;;;23.02;14.93;;;8.50;99.90;;;;;;5052749;28;20127;-66
2023/02/08 12:03:00;;;;;;;23.77;15.30;;;9.00;99.90;;;;;;5054487;28;20064;-68
2023/02/08 12:05:43;;;;;;;25.33;16.10;;;9.20;99.90;;;;;;5046941;28;20484;-67
2023/02/08 12:08:46;;;;;;;27.00;16.55;;;9.30;99.90;;;;;;5034364;28;20152;-67
2023/02/08 12:11:46;;;;;;;21.17;14.85;;;9.60;98.90;;;;;;5036826;28;20048;-68
2023/02/08 12:14:26;;;;;;;23.35;16.13;;;9.40;99.60;;;;;;5054283;28;20079;-68
2023/02/08 12:17:13;;;;;;;27.50;16.27;;;9.70;98.70;;;;;;5041960;28;20385;-68
2023/02/08 12:19:59;;;;;;;26.27;16.27;;;10.30;97.20;;;;;;5033912;28;20033;-68
2023/02/08 12:22:28;;;;;;;25.23;16.13;;;10.00;96.00;;;;;;5050145;28;20040;-68
2023/02/08 12:25:17;;;;;;;22.67;15.48;;;9.60;95.80;;;;;;5050565;28;20037;-67
2023/02/08 12:28:09;;;;;;;27.13;17.38;;;10.00;96.50;;;;;;5052526;28;20179;-67
2023/02/08 12:30:49;;;;;;;22.33;14.93;;;10.30;95.00;;;;;;5051968;28;20036;-67
2023/02/08 12:33:28;;;;;;;22.63;15.75;;;11.00;94.30;;;;;;5048452;28;20059;-68
2023/02/08 12:36:23;;;;;;;22.45;15.38;;;11.50;92.90;;;;;;5052979;28;20061;-67
2023/02/08 12:42:12;;;;;;;25.23;15.25;;;12.50;90.90;;;;;;5070628;28;20506;-68
2023/02/08 12:45:04;;;;;;;24.73;16.25;;;13.40;88.60;;;;;;5062289;28;20510;-69
2023/02/08 12:47:56;;;;;;;21.25;16.05;;;13.60;84.30;;;;;;5072347;28;20041;-69
2023/02/08 12:51:14;;;;;;;22.55;16.48;;;14.10;82.90;;;;;;5070118;28;20041;-68
2023/02/08 12:53:51;;;;;;;24.00;17.45;;;14.40;80.90;;;;;;5008502;28;20045;-68
2023/02/08 12:56:24;;;;;;;23.85;16.50;;;14.70;80.60;;;;;;5010615;28;20560;-68
2023/02/08 12:58:55;;;;;;;25.77;17.27;;;15.00;76.30;;;;;;5010201;28;20056;-69
2023/02/08 13:01:50;;;;;;;21.80;16.63;;;15.00;74.80;;;;;;5010056;28;20050;-69